sensor_id;sensor_type;location;lat;lon;timestamp;P1;durP1;ratioP1;P2;durP2;ratioP2
6823;SDS011;58633;49.470;11.004;2023-04-29T00:02:08;2.85;;;2.65;;
6823;SDS011;58633;49.470;11.004;2023-04-29T00:04:33;3.13;;;2.83;;
6823;SDS011;58633;49.470;11.004;2023-04-29T00:06:59;6.18;;;2.80;;
6823;SDS011;58633;49.470;11.004;2023-04-29T00:09:24;2.65;;;2.45;;
6823;SDS011;58633;49.470;11.004;2023-04-29T00:11:50;2.90;;;2.70;;
6823;SDS011;58633;49.470;11.004;2023-04-29T00:14:15;3.58;;;2.78;;
6823;SDS011;58633;49.470;11.004;2023-04-29T00:16:41;3.25;;;2.92;;
6823;SDS011;58633;49.470;11.004;2023-04-29T00:19:06;2.70;;;2.50;;
6823;SDS011;58633;49.470;11.004;2023-04-29T00:21:32;3.47;;;2.95;;
6823;SDS011;58633;49.470;11.004;2023-04-29T00:23:58;3.25;;;2.80;;
6823;SDS011;58633;49.470;11.004;2023-04-29T00:26:24;3.05;;;2.75;;
6823;SDS011;58633;49.470;11.004;2023-04-29T00:28:49;2.67;;;2.47;;
6823;SDS011;58633;49.470;11.004;2023-04-29T00:31:15;2.92;;;2.70;;
6823;SDS011;58633;49.470;11.004;2023-04-29T00:33:40;2.70;;;2.50;;
6823;SDS011;58633;49.470;11.004;2023-04-29T00:36:06;3.05;;;2.75;;
6823;SDS011;58633;49.470;11.004;2023-04-29T00:38:32;2.80;;;2.55;;
6823;SDS011;58633;49.470;11.004;2023-04-29T00:40:58;2.88;;;2.67;;
6823;SDS011;58633;49.470;11.004;2023-04-29T00:43:23;4.13;;;3.20;;
6823;SDS011;58633;49.470;11.004;2023-04-29T00:45:49;3.20;;;2.78;;
6823;SDS011;58633;49.470;11.004;2023-04-29T00:48:15;3.42;;;2.75;;
6823;SDS011;58633;49.470;11.004;2023-04-29T00:50:41;2.95;;;2.75;;
6823;SDS011;58633;49.470;11.004;2023-04-29T00:53:07;2.90;;;2.70;;
6823;SDS011;58633;49.470;11.004;2023-04-29T00:58:09;3.13;;;2.83;;
6823;SDS011;58633;49.470;11.004;2023-04-29T01:00:35;3.45;;;3.15;;
6823;SDS011;58633;49.470;11.004;2023-04-29T01:03:03;3.75;;;3.08;;
6823;SDS011;58633;49.470;11.004;2023-04-29T01:05:29;3.08;;;2.85;;
6823;SDS011;58633;49.470;11.004;2023-04-29T01:08:12;3.15;;;2.95;;
6823;SDS011;58633;49.470;11.004;2023-04-29T01:10:51;3.58;;;2.95;;
6823;SDS011;58633;49.470;11.004;2023-04-29T01:13:36;2.97;;;2.70;;
6823;SDS011;58633;49.470;11.004;2023-04-29T01:16:10;3.10;;;2.85;;
6823;SDS011;58633;49.470;11.004;2023-04-29T01:18:48;3.08;;;2.88;;
6823;SDS011;58633;49.470;11.004;2023-04-29T01:21:18;3.05;;;2.80;;
6823;SDS011;58633;49.470;11.004;2023-04-29T01:23:44;3.55;;;3.25;;
6823;SDS011;58633;49.470;11.004;2023-04-29T01:26:10;3.50;;;3.20;;
6823;SDS011;58633;49.470;11.004;2023-04-29T01:28:45;3.20;;;2.70;;
6823;SDS011;58633;49.470;11.004;2023-04-29T01:31:21;3.60;;;3.30;;
6823;SDS011;58633;49.470;11.004;2023-04-29T01:34:00;4.35;;;3.13;;
6823;SDS011;58633;49.470;11.004;2023-04-29T01:39:20;4.78;;;3.30;;
6823;SDS011;58633;49.470;11.004;2023-04-29T01:41:58;4.10;;;3.30;;
6823;SDS011;58633;49.470;11.004;2023-04-29T01:44:34;3.80;;;3.47;;
6823;SDS011;58633;49.470;11.004;2023-04-29T01:47:00;4.57;;;3.40;;
6823;SDS011;58633;49.470;11.004;2023-04-29T01:49:27;4.47;;;3.20;;
6823;SDS011;58633;49.470;11.004;2023-04-29T01:51:53;6.45;;;3.47;;
6823;SDS011;58633;49.470;11.004;2023-04-29T01:54:19;3.70;;;3.40;;
6823;SDS011;58633;49.470;11.004;2023-04-29T01:56:46;3.40;;;3.20;;
6823;SDS011;58633;49.470;11.004;2023-04-29T01:59:11;4.45;;;3.35;;
6823;SDS011;58633;49.470;11.004;2023-04-29T02:01:37;4.03;;;3.50;;
6823;SDS011;58633;49.470;11.004;2023-04-29T02:04:02;3.58;;;3.00;;
6823;SDS011;58633;49.470;11.004;2023-04-29T02:06:28;3.42;;;3.15;;
6823;SDS011;58633;49.470;11.004;2023-04-29T02:08:56;3.67;;;3.33;;
6823;SDS011;58633;49.470;11.004;2023-04-29T02:11:21;3.97;;;3.65;;
6823;SDS011;58633;49.470;11.004;2023-04-29T02:13:47;3.65;;;3.35;;
6823;SDS011;58633;49.470;11.004;2023-04-29T02:16:13;3.92;;;3.58;;
6823;SDS011;58633;49.470;11.004;2023-04-29T02:18:39;4.45;;;3.80;;
6823;SDS011;58633;49.470;11.004;2023-04-29T02:21:05;4.00;;;3.60;;
6823;SDS011;58633;49.470;11.004;2023-04-29T02:23:31;5.93;;;3.60;;
6823;SDS011;58633;49.470;11.004;2023-04-29T02:25:57;4.05;;;3.65;;
6823;SDS011;58633;49.470;11.004;2023-04-29T02:28:23;4.88;;;3.78;;
6823;SDS011;58633;49.470;11.004;2023-04-29T02:30:49;4.40;;;4.00;;
6823;SDS011;58633;49.470;11.004;2023-04-29T02:33:14;4.18;;;3.85;;
6823;SDS011;58633;49.470;11.004;2023-04-29T02:35:40;4.95;;;4.45;;
6823;SDS011;58633;49.470;11.004;2023-04-29T02:38:06;4.68;;;4.28;;
6823;SDS011;58633;49.470;11.004;2023-04-29T02:40:31;6.00;;;4.35;;
6823;SDS011;58633;49.470;11.004;2023-04-29T02:42:57;4.82;;;4.13;;
6823;SDS011;58633;49.470;11.004;2023-04-29T02:45:22;5.50;;;3.95;;
6823;SDS011;58633;49.470;11.004;2023-04-29T02:47:48;5.90;;;4.30;;
6823;SDS011;58633;49.470;11.004;2023-04-29T02:50:13;4.72;;;4.32;;
6823;SDS011;58633;49.470;11.004;2023-04-29T02:52:39;4.40;;;4.00;;
6823;SDS011;58633;49.470;11.004;2023-04-29T02:55:06;4.47;;;4.07;;
6823;SDS011;58633;49.470;11.004;2023-04-29T02:57:32;4.75;;;4.32;;
6823;SDS011;58633;49.470;11.004;2023-04-29T02:59:57;4.40;;;4.00;;
6823;SDS011;58633;49.470;11.004;2023-04-29T03:02:23;6.78;;;4.38;;
6823;SDS011;58633;49.470;11.004;2023-04-29T03:04:48;4.70;;;4.30;;
6823;SDS011;58633;49.470;11.004;2023-04-29T03:07:14;4.63;;;4.22;;
6823;SDS011;58633;49.470;11.004;2023-04-29T03:09:41;4.25;;;3.85;;
6823;SDS011;58633;49.470;11.004;2023-04-29T03:12:06;4.75;;;4.28;;
6823;SDS011;58633;49.470;11.004;2023-04-29T03:14:32;5.18;;;4.68;;
6823;SDS011;58633;49.470;11.004;2023-04-29T03:16:57;4.75;;;4.35;;
6823;SDS011;58633;49.470;11.004;2023-04-29T03:19:23;5.00;;;4.47;;
6823;SDS011;58633;49.470;11.004;2023-04-29T03:21:49;10.05;;;4.63;;
6823;SDS011;58633;49.470;11.004;2023-04-29T03:24:14;4.43;;;4.05;;
6823;SDS011;58633;49.470;11.004;2023-04-29T03:26:40;5.40;;;4.57;;
6823;SDS011;58633;49.470;11.004;2023-04-29T03:29:07;4.70;;;4.28;;
6823;SDS011;58633;49.470;11.004;2023-04-29T03:31:32;5.43;;;4.93;;
6823;SDS011;58633;49.470;11.004;2023-04-29T03:33:58;5.43;;;4.93;;
6823;SDS011;58633;49.470;11.004;2023-04-29T03:36:24;5.40;;;4.90;;
6823;SDS011;58633;49.470;11.004;2023-04-29T03:38:49;5.10;;;4.60;;
6823;SDS011;58633;49.470;11.004;2023-04-29T03:41:15;4.88;;;4.47;;
6823;SDS011;58633;49.470;11.004;2023-04-29T03:43:41;5.10;;;4.60;;
6823;SDS011;58633;49.470;11.004;2023-04-29T03:46:08;5.03;;;4.53;;
6823;SDS011;58633;49.470;11.004;2023-04-29T03:48:34;6.68;;;4.82;;
6823;SDS011;58633;49.470;11.004;2023-04-29T03:51:00;5.32;;;4.82;;
6823;SDS011;58633;49.470;11.004;2023-04-29T03:53:26;5.30;;;4.80;;
6823;SDS011;58633;49.470;11.004;2023-04-29T03:55:51;5.93;;;5.20;;
6823;SDS011;58633;49.470;11.004;2023-04-29T03:58:17;5.57;;;5.07;;
6823;SDS011;58633;49.470;11.004;2023-04-29T04:00:43;6.28;;;4.93;;
6823;SDS011;58633;49.470;11.004;2023-04-29T04:03:08;5.97;;;5.38;;
6823;SDS011;58633;49.470;11.004;2023-04-29T04:05:34;6.85;;;5.45;;
6823;SDS011;58633;49.470;11.004;2023-04-29T04:07:59;6.05;;;5.10;;
6823;SDS011;58633;49.470;11.004;2023-04-29T04:10:25;6.00;;;5.40;;
6823;SDS011;58633;49.470;11.004;2023-04-29T04:12:52;6.28;;;5.68;;
6823;SDS011;58633;49.470;11.004;2023-04-29T04:15:17;5.90;;;5.30;;
6823;SDS011;58633;49.470;11.004;2023-04-29T04:17:43;7.03;;;5.53;;
6823;SDS011;58633;49.470;11.004;2023-04-29T04:20:09;6.15;;;5.50;;
6823;SDS011;58633;49.470;11.004;2023-04-29T04:22:35;5.57;;;5.07;;
6823;SDS011;58633;49.470;11.004;2023-04-29T04:25:00;7.70;;;5.35;;
6823;SDS011;58633;49.470;11.004;2023-04-29T04:27:26;6.53;;;5.88;;
6823;SDS011;58633;49.470;11.004;2023-04-29T04:29:52;7.22;;;5.70;;
6823;SDS011;58633;49.470;11.004;2023-04-29T04:32:18;7.57;;;5.95;;
6823;SDS011;58633;49.470;11.004;2023-04-29T04:34:45;6.28;;;5.25;;
6823;SDS011;58633;49.470;11.004;2023-04-29T04:37:12;6.50;;;5.70;;
6823;SDS011;58633;49.470;11.004;2023-04-29T04:39:37;7.63;;;4.60;;
6823;SDS011;58633;49.470;11.004;2023-04-29T04:42:03;5.03;;;4.53;;
6823;SDS011;58633;49.470;11.004;2023-04-29T04:44:28;5.18;;;4.50;;
6823;SDS011;58633;49.470;11.004;2023-04-29T04:46:55;4.63;;;4.22;;
6823;SDS011;58633;49.470;11.004;2023-04-29T04:49:22;5.07;;;4.22;;
6823;SDS011;58633;49.470;11.004;2023-04-29T04:51:48;5.07;;;4.50;;
6823;SDS011;58633;49.470;11.004;2023-04-29T04:54:15;5.63;;;4.60;;
6823;SDS011;58633;49.470;11.004;2023-04-29T04:56:41;5.38;;;4.53;;
6823;SDS011;58633;49.470;11.004;2023-04-29T04:59:07;5.75;;;5.05;;
6823;SDS011;58633;49.470;11.004;2023-04-29T05:01:32;7.93;;;4.80;;
6823;SDS011;58633;49.470;11.004;2023-04-29T05:03:58;5.82;;;4.55;;
6823;SDS011;58633;49.470;11.004;2023-04-29T05:06:24;6.55;;;4.65;;
6823;SDS011;58633;49.470;11.004;2023-04-29T05:08:50;6.13;;;4.88;;
6823;SDS011;58633;49.470;11.004;2023-04-29T05:11:19;6.32;;;4.78;;
6823;SDS011;58633;49.470;11.004;2023-04-29T05:13:45;5.53;;;4.78;;
6823;SDS011;58633;49.470;11.004;2023-04-29T05:16:12;6.07;;;5.00;;
6823;SDS011;58633;49.470;11.004;2023-04-29T05:18:37;5.25;;;4.75;;
6823;SDS011;58633;49.470;11.004;2023-04-29T05:21:03;6.65;;;4.88;;
6823;SDS011;58633;49.470;11.004;2023-04-29T05:23:29;5.60;;;5.10;;
6823;SDS011;58633;49.470;11.004;2023-04-29T05:25:54;5.68;;;5.07;;
6823;SDS011;58633;49.470;11.004;2023-04-29T05:28:20;7.10;;;4.97;;
6823;SDS011;58633;49.470;11.004;2023-04-29T05:30:45;6.82;;;5.45;;
6823;SDS011;58633;49.470;11.004;2023-04-29T05:33:14;7.00;;;5.07;;
6823;SDS011;58633;49.470;11.004;2023-04-29T05:35:39;5.00;;;4.50;;
6823;SDS011;58633;49.470;11.004;2023-04-29T05:38:05;7.43;;;6.68;;
6823;SDS011;58633;49.470;11.004;2023-04-29T05:40:31;7.75;;;6.35;;
6823;SDS011;58633;49.470;11.004;2023-04-29T05:42:56;7.00;;;6.30;;
6823;SDS011;58633;49.470;11.004;2023-04-29T05:45:22;8.07;;;6.90;;
6823;SDS011;58633;49.470;11.004;2023-04-29T05:47:47;9.93;;;6.93;;
6823;SDS011;58633;49.470;11.004;2023-04-29T05:50:13;7.55;;;6.32;;
6823;SDS011;58633;49.470;11.004;2023-04-29T05:52:38;6.20;;;5.60;;
6823;SDS011;58633;49.470;11.004;2023-04-29T05:55:04;6.78;;;5.18;;
6823;SDS011;58633;49.470;11.004;2023-04-29T05:57:30;6.30;;;5.70;;
6823;SDS011;58633;49.470;11.004;2023-04-29T05:59:56;5.68;;;5.10;;
6823;SDS011;58633;49.470;11.004;2023-04-29T06:02:23;9.35;;;6.68;;
6823;SDS011;58633;49.470;11.004;2023-04-29T06:04:49;7.15;;;6.45;;
6823;SDS011;58633;49.470;11.004;2023-04-29T06:07:14;7.72;;;6.55;;
6823;SDS011;58633;49.470;11.004;2023-04-29T06:09:41;8.07;;;6.72;;
6823;SDS011;58633;49.470;11.004;2023-04-29T06:12:07;7.25;;;6.30;;
6823;SDS011;58633;49.470;11.004;2023-04-29T06:14:33;8.55;;;6.95;;
6823;SDS011;58633;49.470;11.004;2023-04-29T06:16:58;9.52;;;7.43;;
6823;SDS011;58633;49.470;11.004;2023-04-29T06:19:24;8.00;;;6.72;;
6823;SDS011;58633;49.470;11.004;2023-04-29T06:21:49;6.97;;;6.05;;
6823;SDS011;58633;49.470;11.004;2023-04-29T06:24:15;7.35;;;5.93;;
6823;SDS011;58633;49.470;11.004;2023-04-29T06:26:41;7.57;;;6.45;;
6823;SDS011;58633;49.470;11.004;2023-04-29T06:29:06;7.93;;;7.05;;
6823;SDS011;58633;49.470;11.004;2023-04-29T06:31:32;7.00;;;6.28;;
6823;SDS011;58633;49.470;11.004;2023-04-29T06:33:58;8.88;;;6.57;;
6823;SDS011;58633;49.470;11.004;2023-04-29T06:36:23;8.32;;;7.28;;
6823;SDS011;58633;49.470;11.004;2023-04-29T06:38:49;9.85;;;7.13;;
6823;SDS011;58633;49.470;11.004;2023-04-29T06:41:14;7.82;;;7.03;;
6823;SDS011;58633;49.470;11.004;2023-04-29T06:43:40;11.52;;;6.82;;
6823;SDS011;58633;49.470;11.004;2023-04-29T06:46:07;7.57;;;6.80;;
6823;SDS011;58633;49.470;11.004;2023-04-29T06:48:33;7.40;;;6.70;;
6823;SDS011;58633;49.470;11.004;2023-04-29T06:50:59;8.40;;;6.75;;
6823;SDS011;58633;49.470;11.004;2023-04-29T06:53:24;7.60;;;6.78;;
6823;SDS011;58633;49.470;11.004;2023-04-29T06:55:50;7.63;;;6.80;;
6823;SDS011;58633;49.470;11.004;2023-04-29T06:58:16;7.40;;;6.70;;
6823;SDS011;58633;49.470;11.004;2023-04-29T07:00:43;8.75;;;6.43;;
6823;SDS011;58633;49.470;11.004;2023-04-29T07:03:10;7.63;;;6.75;;
6823;SDS011;58633;49.470;11.004;2023-04-29T07:05:36;9.27;;;7.18;;
6823;SDS011;58633;49.470;11.004;2023-04-29T07:08:04;8.20;;;6.60;;
6823;SDS011;58633;49.470;11.004;2023-04-29T07:10:30;7.60;;;6.80;;
6823;SDS011;58633;49.470;11.004;2023-04-29T07:12:56;6.97;;;6.30;;
6823;SDS011;58633;49.470;11.004;2023-04-29T07:15:21;8.63;;;7.07;;
6823;SDS011;58633;49.470;11.004;2023-04-29T07:17:47;9.85;;;7.00;;
6823;SDS011;58633;49.470;11.004;2023-04-29T07:20:12;9.82;;;7.57;;
6823;SDS011;58633;49.470;11.004;2023-04-29T07:22:38;8.23;;;6.57;;
6823;SDS011;58633;49.470;11.004;2023-04-29T07:25:04;7.50;;;6.50;;
6823;SDS011;58633;49.470;11.004;2023-04-29T07:27:31;6.90;;;6.20;;
6823;SDS011;58633;49.470;11.004;2023-04-29T07:29:58;8.35;;;6.32;;
6823;SDS011;58633;49.470;11.004;2023-04-29T07:32:25;8.38;;;6.57;;
6823;SDS011;58633;49.470;11.004;2023-04-29T07:34:50;7.10;;;6.40;;
6823;SDS011;58633;49.470;11.004;2023-04-29T07:37:16;7.38;;;6.60;;
6823;SDS011;58633;49.470;11.004;2023-04-29T07:39:42;6.82;;;6.13;;
6823;SDS011;58633;49.470;11.004;2023-04-29T07:42:08;7.85;;;7.00;;
6823;SDS011;58633;49.470;11.004;2023-04-29T07:44:33;8.07;;;6.72;;
6823;SDS011;58633;49.470;11.004;2023-04-29T07:46:59;7.57;;;6.75;;
6823;SDS011;58633;49.470;11.004;2023-04-29T07:49:24;8.02;;;6.95;;
6823;SDS011;58633;49.470;11.004;2023-04-29T07:51:50;8.15;;;7.15;;
6823;SDS011;58633;49.470;11.004;2023-04-29T07:54:15;8.00;;;6.80;;
6823;SDS011;58633;49.470;11.004;2023-04-29T07:56:42;8.20;;;6.95;;
6823;SDS011;58633;49.470;11.004;2023-04-29T07:59:07;7.65;;;6.88;;
6823;SDS011;58633;49.470;11.004;2023-04-29T08:01:33;7.68;;;6.85;;
6823;SDS011;58633;49.470;11.004;2023-04-29T08:03:58;8.07;;;6.95;;
6823;SDS011;58633;49.470;11.004;2023-04-29T08:06:24;8.18;;;7.38;;
6823;SDS011;58633;49.470;11.004;2023-04-29T08:08:49;8.98;;;7.55;;
6823;SDS011;58633;49.470;11.004;2023-04-29T08:11:15;10.55;;;7.90;;
6823;SDS011;58633;49.470;11.004;2023-04-29T08:13:44;9.18;;;7.32;;
6823;SDS011;58633;49.470;11.004;2023-04-29T08:16:10;8.80;;;7.90;;
6823;SDS011;58633;49.470;11.004;2023-04-29T08:18:36;8.27;;;7.20;;
6823;SDS011;58633;49.470;11.004;2023-04-29T08:21:02;9.20;;;8.05;;
6823;SDS011;58633;49.470;11.004;2023-04-29T08:23:27;9.60;;;7.90;;
6823;SDS011;58633;49.470;11.004;2023-04-29T08:25:53;9.20;;;8.10;;
6823;SDS011;58633;49.470;11.004;2023-04-29T08:28:20;9.77;;;7.22;;
6823;SDS011;58633;49.470;11.004;2023-04-29T08:30:46;9.38;;;7.65;;
6823;SDS011;58633;49.470;11.004;2023-04-29T08:33:12;7.25;;;6.55;;
6823;SDS011;58633;49.470;11.004;2023-04-29T08:35:38;7.82;;;7.03;;
6823;SDS011;58633;49.470;11.004;2023-04-29T08:38:04;7.38;;;6.68;;
6823;SDS011;58633;49.470;11.004;2023-04-29T08:40:32;8.90;;;7.20;;
6823;SDS011;58633;49.470;11.004;2023-04-29T08:43:06;9.80;;;7.93;;
6823;SDS011;58633;49.470;11.004;2023-04-29T08:45:33;9.98;;;7.53;;
6823;SDS011;58633;49.470;11.004;2023-04-29T08:48:01;8.93;;;7.03;;
6823;SDS011;58633;49.470;11.004;2023-04-29T08:50:27;8.20;;;6.78;;
6823;SDS011;58633;49.470;11.004;2023-04-29T08:52:54;7.70;;;7.00;;
6823;SDS011;58633;49.470;11.004;2023-04-29T08:55:20;8.65;;;7.57;;
6823;SDS011;58633;49.470;11.004;2023-04-29T08:57:45;7.22;;;6.57;;
6823;SDS011;58633;49.470;11.004;2023-04-29T09:00:14;6.43;;;5.82;;
6823;SDS011;58633;49.470;11.004;2023-04-29T09:02:44;6.25;;;5.65;;
6823;SDS011;58633;49.470;11.004;2023-04-29T09:05:13;5.95;;;5.45;;
6823;SDS011;58633;49.470;11.004;2023-04-29T09:07:39;7.43;;;6.18;;
6823;SDS011;58633;49.470;11.004;2023-04-29T09:10:06;6.50;;;5.90;;
6823;SDS011;58633;49.470;11.004;2023-04-29T09:12:32;6.90;;;5.45;;
6823;SDS011;58633;49.470;11.004;2023-04-29T09:14:58;5.82;;;5.32;;
6823;SDS011;58633;49.470;11.004;2023-04-29T09:17:37;6.90;;;6.30;;
6823;SDS011;58633;49.470;11.004;2023-04-29T09:20:06;7.15;;;6.13;;
6823;SDS011;58633;49.470;11.004;2023-04-29T09:22:49;6.00;;;5.30;;
6823;SDS011;58633;49.470;11.004;2023-04-29T09:25:16;5.93;;;5.43;;
6823;SDS011;58633;49.470;11.004;2023-04-29T09:27:41;6.95;;;6.35;;
6823;SDS011;58633;49.470;11.004;2023-04-29T09:30:07;6.82;;;6.13;;
6823;SDS011;58633;49.470;11.004;2023-04-29T09:32:33;7.32;;;6.25;;
6823;SDS011;58633;49.470;11.004;2023-04-29T09:37:51;6.70;;;6.05;;
6823;SDS011;58633;49.470;11.004;2023-04-29T09:40:26;6.82;;;6.10;;
6823;SDS011;58633;49.470;11.004;2023-04-29T09:42:54;8.20;;;6.78;;
6823;SDS011;58633;49.470;11.004;2023-04-29T09:48:05;6.90;;;6.20;;
6823;SDS011;58633;49.470;11.004;2023-04-29T09:50:31;6.45;;;5.85;;
6823;SDS011;58633;49.470;11.004;2023-04-29T09:52:58;9.98;;;5.65;;
6823;SDS011;58633;49.470;11.004;2023-04-29T09:55:24;7.63;;;5.88;;
6823;SDS011;58633;49.470;11.004;2023-04-29T09:57:51;6.43;;;5.70;;
6823;SDS011;58633;49.470;11.004;2023-04-29T10:00:17;5.40;;;4.90;;
6823;SDS011;58633;49.470;11.004;2023-04-29T10:02:44;6.00;;;5.40;;
6823;SDS011;58633;49.470;11.004;2023-04-29T10:05:12;6.22;;;5.07;;
6823;SDS011;58633;49.470;11.004;2023-04-29T10:07:38;5.78;;;5.28;;
6823;SDS011;58633;49.470;11.004;2023-04-29T10:10:05;5.63;;;5.10;;
6823;SDS011;58633;49.470;11.004;2023-04-29T10:12:33;6.03;;;5.13;;
6823;SDS011;58633;49.470;11.004;2023-04-29T10:20:45;5.70;;;5.18;;
6823;SDS011;58633;49.470;11.004;2023-04-29T10:23:12;6.10;;;5.32;;
6823;SDS011;58633;49.470;11.004;2023-04-29T10:25:39;5.70;;;5.20;;
6823;SDS011;58633;49.470;11.004;2023-04-29T10:28:08;5.85;;;5.25;;
6823;SDS011;58633;49.470;11.004;2023-04-29T10:30:38;5.55;;;5.05;;
6823;SDS011;58633;49.470;11.004;2023-04-29T10:33:06;6.35;;;5.00;;
6823;SDS011;58633;49.470;11.004;2023-04-29T10:35:35;6.13;;;5.07;;
6823;SDS011;58633;49.470;11.004;2023-04-29T10:38:02;7.32;;;5.50;;
6823;SDS011;58633;49.470;11.004;2023-04-29T10:40:43;5.68;;;5.18;;
6823;SDS011;58633;49.470;11.004;2023-04-29T10:43:10;5.72;;;5.18;;
6823;SDS011;58633;49.470;11.004;2023-04-29T10:45:36;6.45;;;5.60;;
6823;SDS011;58633;49.470;11.004;2023-04-29T10:53:17;5.22;;;4.72;;
6823;SDS011;58633;49.470;11.004;2023-04-29T10:55:47;6.05;;;4.97;;
6823;SDS011;58633;49.470;11.004;2023-04-29T11:01:08;7.90;;;5.43;;
6823;SDS011;58633;49.470;11.004;2023-04-29T11:06:10;6.20;;;5.25;;
6823;SDS011;58633;49.470;11.004;2023-04-29T11:08:36;6.68;;;5.60;;
6823;SDS011;58633;49.470;11.004;2023-04-29T11:11:05;6.10;;;5.50;;
6823;SDS011;58633;49.470;11.004;2023-04-29T11:13:31;6.40;;;5.20;;
6823;SDS011;58633;49.470;11.004;2023-04-29T11:16:08;5.88;;;4.82;;
6823;SDS011;58633;49.470;11.004;2023-04-29T11:18:35;6.20;;;4.72;;
6823;SDS011;58633;49.470;11.004;2023-04-29T11:21:21;5.88;;;5.07;;
6823;SDS011;58633;49.470;11.004;2023-04-29T11:23:47;5.72;;;5.13;;
6823;SDS011;58633;49.470;11.004;2023-04-29T11:26:18;6.18;;;5.60;;
6823;SDS011;58633;49.470;11.004;2023-04-29T11:28:44;5.28;;;4.78;;
6823;SDS011;58633;49.470;11.004;2023-04-29T11:31:10;5.32;;;4.82;;
6823;SDS011;58633;49.470;11.004;2023-04-29T11:33:35;6.22;;;5.18;;
6823;SDS011;58633;49.470;11.004;2023-04-29T11:36:01;5.32;;;4.82;;
6823;SDS011;58633;49.470;11.004;2023-04-29T11:38:27;5.25;;;4.75;;
6823;SDS011;58633;49.470;11.004;2023-04-29T11:40:54;4.93;;;4.43;;
6823;SDS011;58633;49.470;11.004;2023-04-29T11:43:21;7.47;;;5.32;;
6823;SDS011;58633;49.470;11.004;2023-04-29T11:45:48;5.00;;;3.90;;
6823;SDS011;58633;49.470;11.004;2023-04-29T11:50:48;4.78;;;4.35;;
6823;SDS011;58633;49.470;11.004;2023-04-29T11:53:18;5.60;;;4.90;;
6823;SDS011;58633;49.470;11.004;2023-04-29T11:55:44;5.25;;;4.75;;
6823;SDS011;58633;49.470;11.004;2023-04-29T11:58:11;4.28;;;3.88;;
6823;SDS011;58633;49.470;11.004;2023-04-29T12:00:38;5.25;;;3.08;;
6823;SDS011;58633;49.470;11.004;2023-04-29T12:03:12;3.15;;;2.88;;
6823;SDS011;58633;49.470;11.004;2023-04-29T12:05:38;3.30;;;2.95;;
6823;SDS011;58633;49.470;11.004;2023-04-29T12:08:05;3.63;;;3.30;;
6823;SDS011;58633;49.470;11.004;2023-04-29T12:10:34;3.30;;;2.97;;
6823;SDS011;58633;49.470;11.004;2023-04-29T12:13:00;3.50;;;3.20;;
6823;SDS011;58633;49.470;11.004;2023-04-29T12:15:27;3.63;;;3.17;;
6823;SDS011;58633;49.470;11.004;2023-04-29T12:17:53;3.70;;;3.40;;
6823;SDS011;58633;49.470;11.004;2023-04-29T12:20:19;3.35;;;3.10;;
6823;SDS011;58633;49.470;11.004;2023-04-29T12:22:45;4.05;;;3.03;;
6823;SDS011;58633;49.470;11.004;2023-04-29T12:25:11;4.00;;;3.60;;
6823;SDS011;58633;49.470;11.004;2023-04-29T12:27:38;3.55;;;3.25;;
6823;SDS011;58633;49.470;11.004;2023-04-29T12:30:09;3.70;;;3.40;;
6823;SDS011;58633;49.470;11.004;2023-04-29T12:32:35;3.88;;;3.33;;
6823;SDS011;58633;49.470;11.004;2023-04-29T12:35:02;4.85;;;3.42;;
6823;SDS011;58633;49.470;11.004;2023-04-29T12:37:28;3.65;;;3.35;;
6823;SDS011;58633;49.470;11.004;2023-04-29T12:39:54;3.95;;;3.55;;
6823;SDS011;58633;49.470;11.004;2023-04-29T12:42:20;4.07;;;3.50;;
6823;SDS011;58633;49.470;11.004;2023-04-29T12:44:45;3.60;;;3.30;;
6823;SDS011;58633;49.470;11.004;2023-04-29T12:47:12;3.47;;;3.17;;
6823;SDS011;58633;49.470;11.004;2023-04-29T12:49:44;3.50;;;3.20;;
6823;SDS011;58633;49.470;11.004;2023-04-29T12:52:11;3.38;;;3.08;;
6823;SDS011;58633;49.470;11.004;2023-04-29T12:54:40;3.33;;;2.90;;
6823;SDS011;58633;49.470;11.004;2023-04-29T12:57:07;3.47;;;3.17;;
6823;SDS011;58633;49.470;11.004;2023-04-29T12:59:36;3.20;;;2.78;;
6823;SDS011;58633;49.470;11.004;2023-04-29T13:02:02;3.20;;;3.00;;
6823;SDS011;58633;49.470;11.004;2023-04-29T13:04:28;3.10;;;2.83;;
6823;SDS011;58633;49.470;11.004;2023-04-29T13:06:54;3.28;;;2.97;;
6823;SDS011;58633;49.470;11.004;2023-04-29T13:09:24;3.13;;;2.90;;
6823;SDS011;58633;49.470;11.004;2023-04-29T13:11:50;4.13;;;2.75;;
6823;SDS011;58633;49.470;11.004;2023-04-29T13:14:16;3.17;;;2.88;;
6823;SDS011;58633;49.470;11.004;2023-04-29T13:16:42;3.50;;;3.08;;
6823;SDS011;58633;49.470;11.004;2023-04-29T13:19:08;3.40;;;3.10;;
6823;SDS011;58633;49.470;11.004;2023-04-29T13:21:34;3.30;;;3.00;;
6823;SDS011;58633;49.470;11.004;2023-04-29T13:23:59;3.15;;;2.90;;
6823;SDS011;58633;49.470;11.004;2023-04-29T13:26:25;2.80;;;2.60;;
6823;SDS011;58633;49.470;11.004;2023-04-29T13:28:51;2.92;;;2.72;;
6823;SDS011;58633;49.470;11.004;2023-04-29T13:31:16;2.67;;;2.47;;
6823;SDS011;58633;49.470;11.004;2023-04-29T13:33:42;2.63;;;2.40;;
6823;SDS011;58633;49.470;11.004;2023-04-29T13:36:08;2.80;;;2.30;;
6823;SDS011;58633;49.470;11.004;2023-04-29T13:38:33;2.85;;;2.33;;
6823;SDS011;58633;49.470;11.004;2023-04-29T13:40:59;3.05;;;2.38;;
6823;SDS011;58633;49.470;11.004;2023-04-29T13:43:25;3.20;;;2.40;;
6823;SDS011;58633;49.470;11.004;2023-04-29T13:45:50;2.70;;;2.50;;
6823;SDS011;58633;49.470;11.004;2023-04-29T13:48:16;2.70;;;2.50;;
6823;SDS011;58633;49.470;11.004;2023-04-29T13:50:43;2.70;;;2.50;;
6823;SDS011;58633;49.470;11.004;2023-04-29T13:53:09;2.75;;;2.55;;
6823;SDS011;58633;49.470;11.004;2023-04-29T13:55:35;2.88;;;2.67;;
6823;SDS011;58633;49.470;11.004;2023-04-29T13:58:00;2.25;;;2.15;;
6823;SDS011;58633;49.470;11.004;2023-04-29T14:00:26;4.72;;;2.15;;
6823;SDS011;58633;49.470;11.004;2023-04-29T14:02:52;2.25;;;2.13;;
6823;SDS011;58633;49.470;11.004;2023-04-29T14:05:17;2.75;;;2.30;;
6823;SDS011;58633;49.470;11.004;2023-04-29T14:07:43;2.30;;;2.17;;
6823;SDS011;58633;49.470;11.004;2023-04-29T14:10:08;2.80;;;2.60;;
6823;SDS011;58633;49.470;11.004;2023-04-29T14:12:34;2.72;;;2.53;;
6823;SDS011;58633;49.470;11.004;2023-04-29T14:15:00;2.55;;;2.33;;
6823;SDS011;58633;49.470;11.004;2023-04-29T14:17:25;2.53;;;2.30;;
6823;SDS011;58633;49.470;11.004;2023-04-29T14:19:51;2.45;;;2.25;;
6823;SDS011;58633;49.470;11.004;2023-04-29T14:22:17;2.38;;;2.17;;
6823;SDS011;58633;49.470;11.004;2023-04-29T14:24:42;2.90;;;2.10;;
6823;SDS011;58633;49.470;11.004;2023-04-29T14:27:08;2.92;;;2.60;;
6823;SDS011;58633;49.470;11.004;2023-04-29T14:29:33;2.35;;;2.25;;
6823;SDS011;58633;49.470;11.004;2023-04-29T14:31:59;2.63;;;2.30;;
6823;SDS011;58633;49.470;11.004;2023-04-29T14:34:24;2.72;;;2.10;;
6823;SDS011;58633;49.470;11.004;2023-04-29T14:36:50;2.47;;;2.28;;
6823;SDS011;58633;49.470;11.004;2023-04-29T14:39:16;2.70;;;2.50;;
6823;SDS011;58633;49.470;11.004;2023-04-29T14:41:42;2.78;;;2.50;;
6823;SDS011;58633;49.470;11.004;2023-04-29T14:44:08;2.70;;;2.50;;
6823;SDS011;58633;49.470;11.004;2023-04-29T14:46:33;2.65;;;2.45;;
6823;SDS011;58633;49.470;11.004;2023-04-29T14:48:59;2.80;;;2.40;;
6823;SDS011;58633;49.470;11.004;2023-04-29T14:51:24;2.67;;;2.47;;
6823;SDS011;58633;49.470;11.004;2023-04-29T14:53:51;2.90;;;2.65;;
6823;SDS011;58633;49.470;11.004;2023-04-29T14:56:16;3.00;;;2.72;;
6823;SDS011;58633;49.470;11.004;2023-04-29T14:58:42;2.72;;;2.53;;
6823;SDS011;58633;49.470;11.004;2023-04-29T15:01:08;3.00;;;2.70;;
6823;SDS011;58633;49.470;11.004;2023-04-29T15:03:33;2.83;;;2.63;;
6823;SDS011;58633;49.470;11.004;2023-04-29T15:06:00;2.92;;;2.45;;
6823;SDS011;58633;49.470;11.004;2023-04-29T15:08:27;6.65;;;3.10;;
6823;SDS011;58633;49.470;11.004;2023-04-29T15:10:53;3.35;;;3.05;;
6823;SDS011;58633;49.470;11.004;2023-04-29T15:13:18;3.35;;;2.78;;
6823;SDS011;58633;49.470;11.004;2023-04-29T15:15:44;3.20;;;2.90;;